createdAt,value
2022-12-11T00:01:19.765Z,94521.47
2022-12-11T00:03:48.187Z,94517.47
2022-12-11T00:06:17.783Z,94516.44
2022-12-11T00:08:44.755Z,94522.56
2022-12-11T00:11:14.602Z,94521.56
2022-12-11T00:13:42.182Z,94526.50
2022-12-11T00:16:10.206Z,94533.63
2022-12-11T00:18:37.971Z,94524.94
2022-12-11T00:21:07.109Z,94531.53
2022-12-11T00:23:37.453Z,94527.25
2022-12-11T00:26:10.014Z,94520.59
2022-12-11T00:28:37.252Z,94517.84
2022-12-11T00:31:08.864Z,94524.78
2022-12-11T00:33:35.902Z,94522.81
2022-12-11T00:36:03.053Z,94518.47
2022-12-11T00:38:30.231Z,94528.03
2022-12-11T00:41:01.013Z,94527.13
2022-12-11T00:43:27.992Z,94532.53
2022-12-11T00:45:54.994Z,94551.91
2022-12-11T00:48:22.092Z,94543.91
2022-12-11T00:50:49.117Z,94550.00
2022-12-11T00:53:16.043Z,94555.81
2022-12-11T00:55:44.478Z,94546.88
2022-12-11T00:58:12.682Z,94548.28
2022-12-11T01:00:40.387Z,94547.81
2022-12-11T01:03:08.075Z,94552.03
2022-12-11T01:05:35.382Z,94544.25
2022-12-11T01:08:02.506Z,94556.75
2022-12-11T01:10:29.756Z,94557.75
2022-12-11T01:12:57.911Z,94561.16
2022-12-11T01:15:28.018Z,94562.66
2022-12-11T01:17:55.693Z,94566.31
2022-12-11T01:20:24.152Z,94568.06
2022-12-11T01:22:59.270Z,94580.69
2022-12-11T01:25:28.009Z,94575.50
2022-12-11T01:27:56.191Z,94582.03
2022-12-11T01:30:24.151Z,94587.75
2022-12-11T01:32:51.163Z,94595.94
2022-12-11T01:35:18.469Z,94591.38
2022-12-11T01:37:45.751Z,94601.19
2022-12-11T01:40:15.715Z,94593.41
2022-12-11T01:42:43.022Z,94604.88
2022-12-11T01:45:23.048Z,94596.16
2022-12-11T01:48:00.177Z,94597.91
2022-12-11T01:50:29.386Z,94606.50
2022-12-11T01:52:56.487Z,94613.50
2022-12-11T01:55:23.647Z,94621.34
2022-12-11T01:57:52.727Z,94627.06
2022-12-11T02:00:20.929Z,94633.50
2022-12-11T02:02:47.886Z,94620.09
2022-12-11T02:05:15.249Z,94629.91
2022-12-11T02:07:49.043Z,94628.16
2022-12-11T02:10:16.588Z,94624.56
2022-12-11T02:12:48.807Z,94628.25
2022-12-11T02:15:26.617Z,94633.91
2022-12-11T02:18:19.546Z,94628.94
2022-12-11T02:21:02.809Z,94621.91
2022-12-11T02:23:58.811Z,94619.84
2022-12-11T02:26:55.920Z,94624.41
2022-12-11T02:29:49.709Z,94612.31
2022-12-11T02:32:31.725Z,94618.84
2022-12-11T02:35:17.427Z,94620.72
2022-12-11T02:37:47.009Z,94608.63
2022-12-11T02:40:17.358Z,94602.97
2022-12-11T02:42:47.853Z,94613.78
2022-12-11T02:45:16.807Z,94615.88
2022-12-11T02:47:47.447Z,94602.91
2022-12-11T02:50:18.567Z,94604.47
2022-12-11T02:52:47.797Z,94598.66
2022-12-11T02:55:16.907Z,94597.09
2022-12-11T02:58:05.490Z,94588.56
2022-12-11T03:00:32.697Z,94589.97
2022-12-11T03:02:59.857Z,94602.66
2022-12-11T03:05:28.148Z,94593.47
2022-12-11T03:07:55.084Z,94591.44
2022-12-11T03:10:22.357Z,94592.56
2022-12-11T03:12:53.923Z,94592.38
2022-12-11T03:15:25.307Z,94582.03
2022-12-11T03:18:40.529Z,94576.38
2022-12-11T03:21:17.950Z,94572.06
2022-12-11T03:24:11.930Z,94581.56
2022-12-11T03:26:46.928Z,94576.84
2022-12-11T03:29:32.195Z,94590.28
2022-12-11T03:32:23.237Z,94569.88
2022-12-11T03:34:59.787Z,94570.97
2022-12-11T03:37:31.356Z,94576.44
2022-12-11T03:40:03.390Z,94586.97
2022-12-11T03:42:32.077Z,94575.28
2022-12-11T03:45:00.509Z,94585.47
2022-12-11T03:47:29.127Z,94573.78
2022-12-11T03:49:58.517Z,94575.38
2022-12-11T03:52:28.178Z,94570.59
2022-12-11T03:54:59.666Z,94570.09
2022-12-11T03:57:31.781Z,94567.22
2022-12-11T03:59:59.128Z,94569.31
2022-12-11T04:02:26.137Z,94555.84
2022-12-11T04:04:53.086Z,94572.38
2022-12-11T04:07:20.054Z,94564.31
2022-12-11T04:09:47.007Z,94567.72
2022-12-11T04:12:13.966Z,94566.47
2022-12-11T04:14:59.388Z,94573.63
2022-12-11T04:17:45.338Z,94565.72
2022-12-11T04:20:31.198Z,94558.97
2022-12-11T04:23:16.907Z,94562.25
2022-12-11T04:25:43.919Z,94549.88
2022-12-11T04:28:10.871Z,94542.66
2022-12-11T04:30:37.828Z,94553.78
2022-12-11T04:33:05.210Z,94552.31
2022-12-11T04:35:32.122Z,94558.97
2022-12-11T04:37:59.174Z,94563.97
2022-12-11T04:40:26.128Z,94560.84
2022-12-11T04:42:53.092Z,94562.56
2022-12-11T04:45:20.112Z,94571.00
2022-12-11T04:47:47.206Z,94564.78
2022-12-11T04:50:15.866Z,94569.91
2022-12-11T04:52:43.169Z,94572.16
2022-12-11T04:55:11.535Z,94564.44
2022-12-11T04:57:39.314Z,94568.34
2022-12-11T05:00:09.215Z,94568.50
2022-12-11T05:02:37.781Z,94566.38
2022-12-11T05:05:06.146Z,94579.84
2022-12-11T05:07:33.378Z,94569.66
2022-12-11T05:10:00.346Z,94579.13
2022-12-11T05:12:27.246Z,94577.41
2022-12-11T05:14:55.567Z,94575.16
2022-12-11T05:17:23.495Z,94575.78
2022-12-11T05:19:51.899Z,94588.72
2022-12-11T05:22:19.417Z,94589.28
2022-12-11T05:24:46.485Z,94590.75
2022-12-11T05:27:13.611Z,94584.66
2022-12-11T05:29:40.811Z,94593.53
2022-12-11T05:32:08.213Z,94589.03
2022-12-11T05:34:35.455Z,94595.44
2022-12-11T05:37:02.732Z,94593.56
2022-12-11T05:39:30.331Z,94588.28
2022-12-11T05:41:57.221Z,94601.28
2022-12-11T05:44:24.410Z,94597.91
2022-12-11T05:46:51.792Z,94595.09
2022-12-11T05:49:20.122Z,94602.72
2022-12-11T05:51:48.011Z,94602.22
2022-12-11T05:54:15.531Z,94607.97
2022-12-11T05:56:42.771Z,94609.31
2022-12-11T05:59:10.609Z,94607.75
2022-12-11T06:01:42.891Z,94622.03
2022-12-11T06:04:12.653Z,94616.59
2022-12-11T06:06:40.815Z,94616.59
2022-12-11T06:09:08.344Z,94621.25
2022-12-11T06:11:36.411Z,94631.59
2022-12-11T06:14:04.337Z,94632.13
2022-12-11T06:16:32.454Z,94625.16
2022-12-11T06:18:59.811Z,94637.31
2022-12-11T06:21:32.734Z,94633.16
2022-12-11T06:24:02.295Z,94652.75
2022-12-11T06:26:30.054Z,94654.31
2022-12-11T06:28:57.215Z,94665.91
2022-12-11T06:31:24.533Z,94675.47
2022-12-11T06:33:51.732Z,94692.00
2022-12-11T06:36:20.940Z,94680.59
2022-12-11T06:38:48.938Z,94691.88
2022-12-11T06:41:16.889Z,94704.13
2022-12-11T06:43:44.170Z,94703.78
2022-12-11T06:46:14.122Z,94708.06
2022-12-11T06:48:42.570Z,94703.13
2022-12-11T06:51:12.731Z,94708.31
2022-12-11T06:53:40.890Z,94703.94
2022-12-11T06:56:11.650Z,94718.66
2022-12-11T06:58:39.811Z,94716.38
2022-12-11T07:01:18.702Z,94722.03
2022-12-11T07:03:46.531Z,94717.09
2022-12-11T07:06:14.169Z,94718.22
2022-12-11T07:08:42.170Z,94712.47
2022-12-11T07:11:12.818Z,94709.88
2022-12-11T07:13:42.304Z,94710.53
2022-12-11T07:16:11.651Z,94695.59
2022-12-11T07:18:40.534Z,94710.38
2022-12-11T07:21:09.971Z,94702.81
2022-12-11T07:23:37.170Z,94713.25
2022-12-11T07:26:09.851Z,94725.41
2022-12-11T07:28:37.569Z,94725.50
2022-12-11T07:31:25.289Z,94726.84
2022-12-11T07:34:05.450Z,94738.34
2022-12-11T07:36:34.129Z,94729.13
2022-12-11T07:39:01.851Z,94742.72
2022-12-11T07:41:29.409Z,94732.16
2022-12-11T07:43:56.770Z,94746.53
2022-12-11T07:46:26.972Z,94750.72
2022-12-11T07:48:54.575Z,94752.59
2022-12-11T07:51:34.289Z,94758.78
2022-12-11T07:54:06.977Z,94760.88
2022-12-11T07:56:35.014Z,94750.66
2022-12-11T07:59:04.333Z,94754.13
2022-12-11T08:01:33.839Z,94772.78
2022-12-11T08:04:01.091Z,94765.69
2022-12-11T08:06:34.771Z,94758.72
2022-12-11T08:09:04.176Z,94759.94
2022-12-11T08:11:31.809Z,94768.41
2022-12-11T08:14:00.012Z,94763.94
2022-12-11T08:16:27.586Z,94764.25
2022-12-11T08:18:55.131Z,94765.53
2022-12-11T08:21:26.052Z,94774.47
2022-12-11T08:23:54.491Z,94775.25
2022-12-11T08:26:28.212Z,94778.75
2022-12-11T08:28:56.340Z,94770.28
2022-12-11T08:31:23.937Z,94769.94
2022-12-11T08:33:51.654Z,94773.03
2022-12-11T08:36:21.295Z,94767.47
2022-12-11T08:38:50.131Z,94773.69
2022-12-11T08:41:23.171Z,94766.06
2022-12-11T08:43:55.185Z,94775.81
2022-12-11T08:46:25.959Z,94774.50
2022-12-11T08:48:54.615Z,94779.94
2022-12-11T08:51:24.211Z,94787.00
2022-12-11T08:53:52.250Z,94784.66
2022-12-11T08:56:21.936Z,94787.94
2022-12-11T08:58:49.289Z,94787.94
2022-12-11T09:01:25.515Z,94788.75
2022-12-11T09:03:54.539Z,94779.09
2022-12-11T09:06:23.691Z,94782.78
2022-12-11T09:08:53.433Z,94784.91
2022-12-11T09:11:26.794Z,94783.16
2022-12-11T09:13:55.052Z,94789.06
2022-12-11T09:16:23.970Z,94788.81
2022-12-11T09:18:52.809Z,94784.91
2022-12-11T09:21:23.209Z,94779.66
2022-12-11T09:23:53.858Z,94776.09
2022-12-11T09:26:21.609Z,94772.81
2022-12-11T09:28:49.252Z,94777.50
2022-12-11T09:31:19.998Z,94776.25
2022-12-11T09:33:47.252Z,94770.16
2022-12-11T09:36:14.731Z,94768.88
2022-12-11T09:38:44.289Z,94786.00
2022-12-11T09:41:23.573Z,94789.31
2022-12-11T09:44:13.665Z,94782.84
2022-12-11T09:46:41.602Z,94773.34
2022-12-11T09:49:44.265Z,94776.59
2022-12-11T09:52:14.731Z,94780.53
2022-12-11T09:54:49.570Z,94789.31
2022-12-11T09:57:38.571Z,94796.06
2022-12-11T10:00:14.375Z,94793.88
2022-12-11T10:02:44.606Z,94781.47
2022-12-11T10:05:29.570Z,94782.56
2022-12-11T10:08:21.440Z,94796.19
2022-12-11T10:11:03.490Z,94794.16
2022-12-11T10:13:45.938Z,94784.19
2022-12-11T10:16:21.498Z,94796.22
2022-12-11T10:18:49.491Z,94793.78
2022-12-11T10:21:18.972Z,94792.78
2022-12-11T10:24:01.010Z,94789.97
2022-12-11T10:26:29.770Z,94785.63
2022-12-11T10:29:00.890Z,94796.72
2022-12-11T10:31:49.889Z,94794.84
2022-12-11T10:34:42.862Z,94802.84
2022-12-11T10:37:10.214Z,94801.38
2022-12-11T10:39:37.732Z,94796.88
2022-12-11T10:42:18.855Z,94793.34
2022-12-11T10:45:18.250Z,94786.31
2022-12-11T10:47:46.211Z,94786.38
2022-12-11T10:50:25.264Z,94789.38
2022-12-11T10:52:53.650Z,94791.69
2022-12-11T10:55:26.019Z,94796.28
2022-12-11T10:58:04.651Z,94797.69
2022-12-11T11:00:38.769Z,94795.94
2022-12-11T11:03:20.331Z,94804.09
2022-12-11T11:05:49.559Z,94802.34
2022-12-11T11:08:23.921Z,94800.19
2022-12-11T11:10:52.451Z,94805.47
2022-12-11T11:13:22.529Z,94800.84
2022-12-11T11:15:51.663Z,94813.34
2022-12-11T11:18:27.369Z,94794.94
2022-12-11T11:20:55.217Z,94804.69
2022-12-11T11:23:24.139Z,94792.28
2022-12-11T11:25:58.050Z,94787.88
2022-12-11T11:28:29.930Z,94780.06
2022-12-11T11:31:15.191Z,94775.09
2022-12-11T11:33:59.135Z,94781.66
2022-12-11T11:36:28.890Z,94779.16
2022-12-11T11:39:07.851Z,94773.28
2022-12-11T11:41:35.048Z,94772.84
2022-12-11T11:44:07.370Z,94768.00
2022-12-11T11:46:40.869Z,94766.84
2022-12-11T11:49:16.771Z,94767.31
2022-12-11T11:51:49.453Z,94760.19
2022-12-11T11:54:49.490Z,94769.53
2022-12-11T11:57:29.734Z,94771.94
2022-12-11T12:00:10.092Z,94760.50
2022-12-11T12:13:49.223Z,94782.00
2022-12-11T12:16:59.180Z,94776.28
2022-12-11T12:19:51.734Z,94770.47
2022-12-11T12:22:37.810Z,94767.94
2022-12-11T12:25:20.170Z,94758.19
2022-12-11T12:28:15.545Z,94771.09
2022-12-11T12:31:05.698Z,94761.34
2022-12-11T12:33:59.329Z,94775.25
2022-12-11T12:36:53.935Z,94769.13
2022-12-11T12:39:42.209Z,94761.69
2022-12-11T12:42:14.970Z,94763.59
2022-12-11T12:45:11.581Z,94770.94
2022-12-11T12:47:41.774Z,94769.84
2022-12-11T12:50:16.775Z,94766.28
2022-12-11T12:52:44.732Z,94776.91
2022-12-11T12:55:23.196Z,94784.19
2022-12-11T12:58:00.816Z,94773.66
2022-12-11T13:00:33.015Z,94771.75
2022-12-11T13:03:13.300Z,94778.44
2022-12-11T13:05:44.969Z,94764.16
2022-12-11T13:08:13.831Z,94763.72
2022-12-11T13:10:43.413Z,94774.59
2022-12-11T13:13:33.611Z,94773.16
2022-12-11T13:16:15.886Z,94772.66
2022-12-11T13:18:45.609Z,94775.13
2022-12-11T13:21:30.290Z,94775.47
2022-12-11T13:24:20.491Z,94773.28
2022-12-11T13:26:49.850Z,94779.88
2022-12-11T13:29:38.892Z,94778.34
2022-12-11T13:32:18.413Z,94778.91
2022-12-11T13:34:53.330Z,94784.78
2022-12-11T13:37:38.689Z,94793.91
2022-12-11T13:40:14.611Z,94795.56
2022-12-11T13:42:55.930Z,94802.53
2022-12-11T13:45:40.359Z,94807.28
2022-12-11T13:48:23.259Z,94808.84
2022-12-11T13:50:52.691Z,94816.84
2022-12-11T13:53:21.650Z,94817.66
2022-12-11T13:56:05.531Z,94823.72
2022-12-11T13:58:40.851Z,94835.97
2022-12-11T14:01:13.164Z,94838.22
2022-12-11T14:03:56.217Z,94843.50
2022-12-11T14:06:25.538Z,94852.59
2022-12-11T14:08:55.730Z,94855.69
2022-12-11T14:11:30.332Z,94848.59
2022-12-11T14:14:03.771Z,94851.19
2022-12-11T14:16:31.619Z,94857.97
2022-12-11T14:19:08.929Z,94862.84
2022-12-11T14:21:37.130Z,94858.59
2022-12-11T14:24:06.784Z,94871.94
2022-12-11T14:26:38.295Z,94865.47
2022-12-11T14:29:06.692Z,94872.41
2022-12-11T14:31:40.017Z,94875.47
2022-12-11T14:34:14.170Z,94878.94
2022-12-11T14:36:42.889Z,94882.03
2022-12-11T14:39:42.189Z,94894.78
2022-12-11T14:42:20.732Z,94901.56
2022-12-11T14:44:57.050Z,94907.69
2022-12-11T14:47:41.618Z,94907.81
2022-12-11T14:50:33.014Z,94916.06
2022-12-11T14:53:10.658Z,94920.41
2022-12-11T14:55:39.059Z,94928.22
2022-12-11T14:58:12.452Z,94930.47
2022-12-11T15:00:39.572Z,94929.81
2022-12-11T15:03:12.772Z,94941.19
2022-12-11T15:05:53.971Z,94937.22
2022-12-11T15:08:26.778Z,94936.81
2022-12-11T15:11:10.774Z,94957.31
2022-12-11T15:14:06.810Z,94948.84
2022-12-11T15:16:37.636Z,94958.66
2022-12-11T15:19:05.019Z,94963.00
2022-12-11T15:21:37.250Z,94953.81
2022-12-11T15:24:07.291Z,94961.16
2022-12-11T15:26:40.211Z,94968.81
2022-12-11T15:29:26.053Z,94961.03
2022-12-11T15:32:18.976Z,94963.66
2022-12-11T15:34:55.858Z,94976.63
2022-12-11T15:37:26.258Z,94977.75
2022-12-11T15:39:55.293Z,94982.53
2022-12-11T15:42:25.253Z,94983.50
2022-12-11T15:44:53.572Z,94981.66
2022-12-11T15:47:27.541Z,94987.75
2022-12-11T15:49:58.533Z,94982.00
2022-12-11T15:52:25.970Z,94989.69
2022-12-11T15:54:53.130Z,94983.53
2022-12-11T15:57:23.329Z,94992.25
2022-12-11T15:59:53.010Z,95002.44
2022-12-11T16:02:20.418Z,94992.38
2022-12-11T16:04:47.772Z,94994.81
2022-12-11T16:07:26.171Z,94989.47
2022-12-11T16:09:53.971Z,94997.94
2022-12-11T16:12:21.215Z,95003.50
2022-12-11T16:14:48.490Z,94997.53
2022-12-11T16:17:16.331Z,95000.34
2022-12-11T16:19:44.653Z,94996.19
2022-12-11T16:22:13.093Z,95008.66
2022-12-11T16:24:41.091Z,95012.03
2022-12-11T16:27:12.335Z,95009.09
2022-12-11T16:29:41.690Z,95012.09
2022-12-11T16:32:09.370Z,95009.50
2022-12-11T16:34:37.697Z,95016.19
2022-12-11T16:37:08.215Z,95018.44
2022-12-11T16:39:37.616Z,95022.03
2022-12-11T16:42:06.091Z,95013.00
2022-12-11T16:44:33.504Z,95017.16
2022-12-11T16:47:00.811Z,95022.88
2022-12-11T16:49:27.973Z,95033.78
2022-12-11T16:51:55.253Z,95027.25
2022-12-11T16:54:22.494Z,95026.44
2022-12-11T16:56:49.747Z,95022.66
2022-12-11T16:59:17.265Z,95019.50
2022-12-11T17:01:56.735Z,95019.31
2022-12-11T17:04:29.222Z,95014.78
2022-12-11T17:06:56.640Z,95016.94
2022-12-11T17:09:23.746Z,95026.25
2022-12-11T17:11:53.772Z,95023.06
2022-12-11T17:14:20.956Z,95030.88
2022-12-11T17:16:48.541Z,95012.03
2022-12-11T17:19:16.727Z,95024.72
2022-12-11T17:21:48.398Z,95023.78
2022-12-11T17:24:18.239Z,95017.41
2022-12-11T17:26:45.086Z,95023.13
2022-12-11T17:29:13.412Z,95021.84
2022-12-11T17:31:41.349Z,95024.41
2022-12-11T17:34:08.468Z,95030.72
2022-12-11T17:36:36.266Z,95027.81
2022-12-11T17:41:38.936Z,95025.66
2022-12-11T17:44:06.067Z,95032.41
2022-12-11T17:46:33.357Z,95029.59
2022-12-11T17:49:04.148Z,95031.59
2022-12-11T17:51:31.702Z,95041.72
2022-12-11T17:53:59.019Z,95038.75
2022-12-11T17:56:26.534Z,95037.81
2022-12-11T17:58:53.816Z,95031.00
2022-12-11T18:01:22.085Z,95035.63
2022-12-11T18:03:49.396Z,95034.47
2022-12-11T18:06:18.926Z,95030.72
2022-12-11T18:08:47.135Z,95035.88
2022-12-11T18:11:16.506Z,95029.13
2022-12-11T18:13:45.091Z,95040.03
2022-12-11T18:16:25.150Z,95034.09
2022-12-11T18:18:53.173Z,95032.91
2022-12-11T18:21:23.331Z,95028.13
2022-12-11T18:23:51.256Z,95041.66
2022-12-11T18:26:20.028Z,95040.66
2022-12-11T18:28:47.827Z,95040.91
2022-12-11T18:31:15.700Z,95034.97
2022-12-11T18:33:44.693Z,95044.59
2022-12-11T18:36:13.591Z,95037.28
2022-12-11T18:38:42.334Z,95038.13
2022-12-11T18:41:11.573Z,95036.31
2022-12-11T18:43:40.144Z,95035.47
2022-12-11T18:46:13.049Z,95038.06
2022-12-11T18:48:41.307Z,95042.16
2022-12-11T18:51:10.623Z,95047.91
2022-12-11T18:53:39.693Z,95044.31
2022-12-11T18:56:15.981Z,95047.69
2022-12-11T18:58:43.655Z,95041.97
2022-12-11T19:01:18.549Z,95037.00
2022-12-11T19:03:46.410Z,95041.56
2022-12-11T19:06:20.895Z,95040.22
2022-12-11T19:08:49.173Z,95042.81
2022-12-11T19:11:19.613Z,95045.94
2022-12-11T19:13:46.932Z,95044.34
2022-12-11T19:16:22.483Z,95050.34
2022-12-11T19:18:50.691Z,95045.97
2022-12-11T19:21:18.941Z,95048.75
2022-12-11T19:23:46.376Z,95042.28
2022-12-11T19:26:16.891Z,95060.72
2022-12-11T19:28:44.852Z,95051.44
2022-12-11T19:31:22.586Z,95049.28
2022-12-11T19:33:50.627Z,95049.72
2022-12-11T19:36:21.097Z,95045.34
2022-12-11T19:38:48.853Z,95044.38
2022-12-11T19:41:18.996Z,95052.47
2022-12-11T19:43:46.275Z,95045.75
2022-12-11T19:46:14.341Z,95037.22
2022-12-11T19:48:42.060Z,95039.22
2022-12-11T19:51:13.255Z,95032.69
2022-12-11T19:53:41.774Z,95034.66
2022-12-11T19:56:09.740Z,95033.31
2022-12-11T19:58:36.772Z,95028.94
2022-12-11T20:01:04.490Z,95027.94
2022-12-11T20:03:32.200Z,95027.56
2022-12-11T20:06:01.707Z,95031.94
2022-12-11T20:08:44.304Z,95031.31
2022-12-11T20:11:18.015Z,95035.91
2022-12-11T20:13:47.195Z,95029.59
2022-12-11T20:16:15.764Z,95025.44
2022-12-11T20:18:42.965Z,95028.00
2022-12-11T20:21:13.938Z,95023.06
2022-12-11T20:23:42.427Z,95020.31
2022-12-11T20:26:15.775Z,95022.88
2022-12-11T20:28:43.584Z,95028.22
2022-12-11T20:31:19.945Z,95022.53
2022-12-11T20:33:49.549Z,95026.09
2022-12-11T20:36:18.779Z,95024.88
2022-12-11T20:38:46.771Z,95023.31
2022-12-11T20:41:16.339Z,95019.78
2022-12-11T20:43:43.899Z,95026.91
2022-12-11T20:46:12.957Z,95021.97
2022-12-11T20:48:42.772Z,95030.09
2022-12-11T20:51:12.778Z,95030.47
2022-12-11T20:53:40.491Z,95035.88
2022-12-11T20:56:13.656Z,95043.19
2022-12-11T20:58:41.373Z,95044.59
2022-12-11T21:01:17.869Z,95050.94
2022-12-11T21:03:45.652Z,95051.53
2022-12-11T21:06:31.646Z,95046.81
2022-12-11T21:09:00.738Z,95044.03
2022-12-11T21:11:28.781Z,95047.97
2022-12-11T21:13:56.652Z,95052.56
2022-12-11T21:16:24.461Z,95051.97
2022-12-11T21:18:52.295Z,95053.34
2022-12-11T21:21:20.519Z,95054.09
2022-12-11T21:23:47.682Z,95055.91
2022-12-11T21:26:15.662Z,95060.50
2022-12-11T21:28:44.254Z,95061.06
2022-12-11T21:31:18.234Z,95064.84
2022-12-11T21:33:45.889Z,95064.41
2022-12-11T21:36:14.893Z,95068.38
2022-12-11T21:38:43.899Z,95074.94
2022-12-11T21:41:15.931Z,95084.41
2022-12-11T21:44:14.650Z,95085.00
2022-12-11T21:46:33.548Z,95083.22
2022-12-11T21:49:00.809Z,95079.06
2022-12-11T21:51:36.533Z,95080.84
2022-12-11T21:54:10.614Z,95081.25
2022-12-11T21:56:37.970Z,95084.22
2022-12-11T21:59:05.534Z,95080.06
2022-12-11T22:01:37.491Z,95086.78
2022-12-11T22:04:05.977Z,95084.81
2022-12-11T22:06:33.729Z,95093.72
2022-12-11T22:09:01.463Z,95088.00
2022-12-11T22:11:31.298Z,95094.50
2022-12-11T22:13:59.307Z,95097.06
2022-12-11T22:16:26.602Z,95091.53
2022-12-11T22:18:53.982Z,95094.72
2022-12-11T22:21:21.371Z,95099.44
2022-12-11T22:23:48.771Z,95103.00
2022-12-11T22:26:20.173Z,95103.00
2022-12-11T22:28:47.810Z,95101.66
2022-12-11T22:31:17.462Z,95097.88
2022-12-11T22:33:44.730Z,95102.22
2022-12-11T22:36:12.411Z,95100.66
2022-12-11T22:38:40.132Z,95105.00
2022-12-11T22:41:31.940Z,95100.06
2022-12-11T22:43:59.810Z,95110.34
2022-12-11T22:46:29.540Z,95108.94
2022-12-11T22:48:57.851Z,95103.22
2022-12-11T22:51:25.294Z,95108.56
2022-12-11T22:53:52.579Z,95110.53
2022-12-11T22:56:19.947Z,95107.56
2022-12-11T22:58:47.419Z,95105.00
2022-12-11T23:01:21.011Z,95097.28
2022-12-11T23:03:49.060Z,95098.84
2022-12-11T23:06:17.614Z,95100.25
2022-12-11T23:08:45.378Z,95099.06
2022-12-11T23:11:21.972Z,95106.78
2022-12-11T23:13:49.212Z,95104.22
2022-12-11T23:16:16.907Z,95106.00
2022-12-11T23:18:44.210Z,95109.16
2022-12-11T23:21:12.776Z,95109.16
2022-12-11T23:23:40.130Z,95096.28
2022-12-11T23:26:10.617Z,95108.75
2022-12-11T23:28:38.651Z,95103.44
2022-12-11T23:31:06.037Z,95101.44
2022-12-11T23:33:33.491Z,95102.63
2022-12-11T23:36:00.813Z,95111.34
2022-12-11T23:38:28.174Z,95105.41
2022-12-11T23:40:55.725Z,95105.59
2022-12-11T23:43:23.690Z,95103.00
2022-12-11T23:45:50.880Z,95105.78
2022-12-11T23:48:18.889Z,95110.72
2022-12-11T23:50:46.271Z,95108.53
2022-12-11T23:53:13.617Z,95115.28
2022-12-11T23:55:43.454Z,95116.25
2022-12-11T23:58:11.113Z,95116.84
